Terminal Aerodrome Forecast
Issued by NWS

Home | Current Version | Previous Version | Text Only | Print | Product List | Glossary On
Versions: 1 2 3 4 5 6 7 8 9 10 11 12 13 14 15 16 17 18 19 20 21 22 23 24 25 26 27 28 29 30 31 32
000
FTUS46 KSEW 011700
TAFSEA
TAF
KSEA 011730Z 0118/0224 15003KT P6SM OVC060
     FM012000 17006KT 5SM -RA BR OVC025
     FM020000 18006KT P6SM BKN020 OVC035
     FM021000 19006KT P6SM OVC018
     FM021600 12005KT P6SM OVC100=

USA.gov is the U.S. government's official web portal to all federal, state and local government web resources and services.